Time;durP1;ratioP1;P1;durP2;ratioP2;P2;SDS_P1;SDS_P2;PMS_P1;PMS_P2;Temp;Humidity;BMP_temperature;BMP_pressure;BME280_temperature;BME280_humidity;BME280_pressure;Samples;Min_cycle;Max_cycle;Signal;HPM_P1;HPM_P2
2023/03/03 00:00:21;;;;;;;;;;;5.60;76.40;;;;;;5091205;28;19931;-76
2023/03/03 00:02:49;;;;;;;;;;;5.60;76.50;;;;;;5091701;28;19974;-76
2023/03/03 00:05:17;;;;;;;;;;;5.60;77.30;;;;;;5100703;28;19928;-75
2023/03/03 00:07:44;;;;;;;;;;;5.60;76.60;;;;;;5100187;28;19995;-76
2023/03/03 00:10:10;;;;;;;;;;;5.60;76.70;;;;;;5093527;28;20386;-74
2023/03/03 00:12:45;;;;;;;;;;;5.60;76.70;;;;;;5094791;28;19993;-75
2023/03/03 00:15:14;;;;;;;;;;;5.60;76.80;;;;;;5096958;28;19988;-75
2023/03/03 00:17:40;;;;;;;;;;;5.50;76.80;;;;;;5095716;28;19939;-73
2023/03/03 00:20:22;;;;;;;;;;;5.50;76.80;;;;;;5096954;28;19932;-75
2023/03/03 00:22:50;;;;;;;;;;;5.50;76.90;;;;;;5098232;27;19928;-75
2023/03/03 00:25:24;;;;;;;;;;;5.50;77.00;;;;;;5095107;28;20019;-75
2023/03/03 00:27:50;;;;;;;;;;;5.50;77.10;;;;;;5096522;28;19928;-75
2023/03/03 00:30:19;;;;;;;;;;;5.50;77.00;;;;;;5094439;28;20506;-75
2023/03/03 00:32:49;;;;;;;;;;;5.40;77.00;;;;;;5093439;28;19932;-75
2023/03/03 00:35:26;;;;;;;;;;;5.40;77.10;;;;;;5097430;28;19932;-76
2023/03/03 00:37:56;;;;;;;;;;;5.40;77.20;;;;;;5098352;28;20621;-75
2023/03/03 00:40:23;;;;;;;;;;;5.40;77.20;;;;;;5098658;28;20687;-77
2023/03/03 00:42:52;;;;;;;;;;;5.40;77.20;;;;;;5095753;28;19967;-74
2023/03/03 00:45:23;;;;;;;;;;;5.30;77.30;;;;;;5095325;28;19993;-77
2023/03/03 00:47:50;;;;;;;;;;;5.30;77.40;;;;;;5098861;27;19934;-77
2023/03/03 00:50:30;;;;;;;;;;;5.30;77.60;;;;;;5097984;27;19932;-77
2023/03/03 00:53:06;;;;;;;;;;;5.30;77.60;;;;;;5097314;28;19932;-77
2023/03/03 00:55:33;;;;;;;;;;;5.30;77.60;;;;;;5099210;27;19927;-76
2023/03/03 00:58:00;;;;;;;;;;;5.30;77.70;;;;;;5100247;27;19958;-76
2023/03/03 01:00:26;;;;;;;;;;;5.30;77.70;;;;;;5099532;28;19973;-76
2023/03/03 01:02:53;;;;;;;;;;;5.20;77.70;;;;;;5095517;27;19944;-77
2023/03/03 01:05:20;;;;;;;;;;;5.20;77.60;;;;;;5093778;28;19927;-74
2023/03/03 01:07:46;;;;;;;;;;;5.20;77.60;;;;;;5097999;28;19931;-77
2023/03/03 01:10:14;;;;;;;;;;;5.20;77.60;;;;;;5097647;28;20718;-78
2023/03/03 01:12:41;;;;;;;;;;;5.20;77.70;;;;;;5092929;27;20450;-76
2023/03/03 01:15:09;;;;;;;;;;;5.20;77.80;;;;;;5094694;27;19927;-77
2023/03/03 01:17:35;;;;;;;;;;;5.20;77.80;;;;;;5098953;27;19927;-77
2023/03/03 01:20:02;;;;;;;;;;;5.20;77.80;;;;;;5097312;28;19936;-76
2023/03/03 01:22:29;;;;;;;;;;;5.10;77.90;;;;;;5097472;27;19974;-77
2023/03/03 01:24:55;;;;;;;;;;;5.10;77.80;;;;;;5097684;28;19943;-77
2023/03/03 01:27:23;;;;;;;;;;;5.10;77.90;;;;;;5091500;28;20454;-76
2023/03/03 01:29:49;;;;;;;;;;;5.10;77.90;;;;;;5095566;28;20420;-75
2023/03/03 01:32:16;;;;;;;;;;;5.10;77.90;;;;;;5084974;28;19985;-76
2023/03/03 01:34:43;;;;;;;;;;;5.10;77.90;;;;;;5077911;28;19951;-76
2023/03/03 01:37:09;;;;;;;;;;;5.00;77.90;;;;;;5086109;28;19936;-77
2023/03/03 01:39:36;;;;;;;;;;;5.00;77.90;;;;;;5083532;28;19932;-76
2023/03/03 01:42:02;;;;;;;;;;;5.00;78.00;;;;;;5075793;28;20710;-76
2023/03/03 01:44:30;;;;;;;;;;;5.00;78.20;;;;;;5083168;28;19940;-77
2023/03/03 01:46:58;;;;;;;;;;;5.00;78.30;;;;;;5076766;28;19932;-77
2023/03/03 01:49:26;;;;;;;;;;;4.90;78.20;;;;;;5075267;28;19931;-76
2023/03/03 01:51:55;;;;;;;;;;;4.90;78.20;;;;;;5078246;28;19928;-75
2023/03/03 01:54:24;;;;;;;;;;;4.90;78.30;;;;;;5079013;28;20405;-77
2023/03/03 01:56:51;;;;;;;;;;;4.90;78.30;;;;;;5078701;28;19932;-77
2023/03/03 01:59:19;;;;;;;;;;;4.80;78.20;;;;;;5077311;28;20224;-76
2023/03/03 02:01:48;;;;;;;;;;;4.80;78.30;;;;;;5075240;28;19931;-77
2023/03/03 02:04:15;;;;;;;;;;;4.80;78.30;;;;;;5079174;28;20315;-76
2023/03/03 02:06:44;;;;;;;;;;;4.80;78.20;;;;;;5069582;28;19938;-75
2023/03/03 02:09:13;;;;;;;;;;;4.80;78.20;;;;;;5078193;28;19928;-76
2023/03/03 02:11:41;;;;;;;;;;;4.70;78.30;;;;;;5073339;28;19962;-75
2023/03/03 02:14:08;;;;;;;;;;;4.70;78.30;;;;;;5072992;28;19933;-76
2023/03/03 02:16:34;;;;;;;;;;;4.70;78.30;;;;;;5076193;28;19928;-76
2023/03/03 02:19:04;;;;;;;;;;;4.70;78.30;;;;;;5077268;28;20883;-75
2023/03/03 02:21:31;;;;;;;;;;;4.70;78.30;;;;;;5081604;28;20301;-75
2023/03/03 02:24:00;;;;;;;;;;;4.70;78.30;;;;;;5079775;28;19989;-76
2023/03/03 02:26:28;;;;;;;;;;;4.60;78.20;;;;;;5084113;28;19928;-76
2023/03/03 02:28:55;;;;;;;;;;;4.60;78.30;;;;;;5082565;28;20031;-76
2023/03/03 02:31:23;;;;;;;;;;;4.60;78.30;;;;;;5083453;28;19924;-76
2023/03/03 02:33:50;;;;;;;;;;;4.60;78.30;;;;;;5074738;28;19924;-76
2023/03/03 02:36:18;;;;;;;;;;;4.50;78.20;;;;;;5076211;28;20088;-77
2023/03/03 02:38:48;;;;;;;;;;;4.60;78.30;;;;;;5071700;28;19931;-76
2023/03/03 02:41:17;;;;;;;;;;;4.50;79.00;;;;;;5073346;28;19966;-77
2023/03/03 02:43:48;;;;;;;;;;;4.50;78.30;;;;;;5073241;28;19932;-76
2023/03/03 02:46:14;;;;;;;;;;;4.50;78.30;;;;;;5082013;28;19997;-76
2023/03/03 02:48:41;;;;;;;;;;;4.40;78.20;;;;;;5096595;27;19994;-76
2023/03/03 02:51:07;;;;;;;;;;;4.50;78.30;;;;;;5093992;27;20426;-76
2023/03/03 02:53:34;;;;;;;;;;;4.40;78.30;;;;;;5092972;28;19928;-76
2023/03/03 02:56:00;;;;;;;;;;;4.40;78.30;;;;;;5092089;28;19932;-76
2023/03/03 02:58:27;;;;;;;;;;;4.40;78.30;;;;;;5091786;28;19955;-76
2023/03/03 03:00:55;;;;;;;;;;;4.40;78.30;;;;;;5091079;28;20457;-76
2023/03/03 03:03:22;;;;;;;;;;;4.30;78.30;;;;;;5091121;27;19931;-77
2023/03/03 03:05:48;;;;;;;;;;;4.40;78.30;;;;;;5094062;28;19997;-75
2023/03/03 03:08:15;;;;;;;;;;;4.30;78.30;;;;;;5094432;28;19935;-76
2023/03/03 03:10:41;;;;;;;;;;;4.30;78.30;;;;;;5090762;28;20441;-76
2023/03/03 03:13:08;;;;;;;;;;;4.30;78.30;;;;;;5096640;28;19935;-76
2023/03/03 03:15:34;;;;;;;;;;;4.20;78.30;;;;;;5094097;28;19981;-76
2023/03/03 03:18:02;;;;;;;;;;;4.20;78.40;;;;;;5096222;28;19948;-76
2023/03/03 03:20:29;;;;;;;;;;;4.10;78.40;;;;;;5096176;28;19928;-77
2023/03/03 03:22:56;;;;;;;;;;;4.10;78.40;;;;;;5094760;28;19932;-76
2023/03/03 03:25:22;;;;;;;;;;;4.10;78.30;;;;;;5091330;28;19928;-77
2023/03/03 03:27:49;;;;;;;;;;;4.10;78.50;;;;;;5091010;28;20061;-75
2023/03/03 03:30:16;;;;;;;;;;;4.10;78.50;;;;;;5096317;27;19927;-76
2023/03/03 03:32:42;;;;;;;;;;;4.00;78.50;;;;;;5093268;28;19932;-76
2023/03/03 03:35:11;;;;;;;;;;;4.00;78.50;;;;;;5097894;28;19935;-76
2023/03/03 03:37:37;;;;;;;;;;;4.00;78.60;;;;;;5094706;28;19927;-76
2023/03/03 03:40:04;;;;;;;;;;;4.00;78.60;;;;;;5088479;28;19927;-76
2023/03/03 03:42:31;;;;;;;;;;;4.00;78.60;;;;;;5097211;28;19928;-75
2023/03/03 03:44:57;;;;;;;;;;;4.00;78.60;;;;;;5093285;28;20441;-77
2023/03/03 03:47:24;;;;;;;;;;;3.90;78.50;;;;;;5092670;27;19974;-75
2023/03/03 03:49:50;;;;;;;;;;;3.80;78.50;;;;;;5092291;28;20422;-74
2023/03/03 03:52:18;;;;;;;;;;;3.80;78.70;;;;;;5091686;28;19927;-75
2023/03/03 03:54:45;;;;;;;;;;;3.80;78.80;;;;;;5092567;28;19954;-75
2023/03/03 03:57:11;;;;;;;;;;;3.70;78.80;;;;;;5094036;28;19962;-75
2023/03/03 03:59:38;;;;;;;;;;;3.70;78.80;;;;;;5092761;28;19928;-76
2023/03/03 04:02:05;;;;;;;;;;;3.70;78.80;;;;;;5087809;28;19927;-75
2023/03/03 04:04:31;;;;;;;;;;;3.70;78.80;;;;;;5095383;28;19932;-74
2023/03/03 04:06:58;;;;;;;;;;;3.60;78.70;;;;;;5098296;28;19927;-75
2023/03/03 04:09:27;;;;;;;;;;;3.60;78.80;;;;;;5094862;28;19973;-76
2023/03/03 04:11:53;;;;;;;;;;;3.60;78.90;;;;;;5089545;28;19932;-75
2023/03/03 04:14:20;;;;;;;;;;;3.60;78.90;;;;;;5088341;28;19928;-74
2023/03/03 04:16:46;;;;;;;;;;;3.50;78.80;;;;;;5090344;28;20389;-75
2023/03/03 04:19:13;;;;;;;;;;;3.50;78.90;;;;;;5093068;28;19932;-76
2023/03/03 04:21:39;;;;;;;;;;;3.50;78.90;;;;;;5095072;28;19927;-75
2023/03/03 04:24:06;;;;;;;;;;;3.50;78.90;;;;;;5098187;27;20001;-75
2023/03/03 04:26:34;;;;;;;;;;;3.50;78.90;;;;;;5094543;28;19984;-75
2023/03/03 04:29:01;;;;;;;;;;;3.50;78.90;;;;;;5097653;28;21022;-75
2023/03/03 04:31:27;;;;;;;;;;;3.50;78.90;;;;;;5097807;28;19934;-76
2023/03/03 04:33:54;;;;;;;;;;;3.50;78.90;;;;;;5096442;27;19969;-76
2023/03/03 04:36:21;;;;;;;;;;;3.50;78.90;;;;;;5097613;27;19981;-75
2023/03/03 04:38:48;;;;;;;;;;;3.50;78.90;;;;;;5093566;27;19935;-74
2023/03/03 04:41:14;;;;;;;;;;;3.40;78.80;;;;;;5100238;27;19935;-75
2023/03/03 04:43:42;;;;;;;;;;;3.40;78.90;;;;;;5091070;27;19932;-75
2023/03/03 04:46:08;;;;;;;;;;;3.40;78.90;;;;;;5092916;27;20387;-75
2023/03/03 04:48:35;;;;;;;;;;;3.40;79.00;;;;;;5100944;28;20009;-75
2023/03/03 04:51:01;;;;;;;;;;;3.40;79.00;;;;;;5101448;27;19940;-76
2023/03/03 04:53:28;;;;;;;;;;;3.40;79.10;;;;;;5097501;28;19932;-75
2023/03/03 04:55:55;;;;;;;;;;;3.30;79.30;;;;;;5101749;27;20413;-76
2023/03/03 04:58:21;;;;;;;;;;;3.30;79.20;;;;;;5097138;27;19935;-75
2023/03/03 05:00:53;;;;;;;;;;;3.30;79.40;;;;;;5095390;27;20003;-76
2023/03/03 05:03:20;;;;;;;;;;;3.30;79.40;;;;;;5098827;28;19985;-75
2023/03/03 05:05:47;;;;;;;;;;;3.30;79.40;;;;;;5096727;28;20351;-76
2023/03/03 05:08:14;;;;;;;;;;;3.30;79.40;;;;;;5094548;28;19992;-75
2023/03/03 05:10:40;;;;;;;;;;;3.20;80.10;;;;;;5096186;27;19969;-76
2023/03/03 05:13:08;;;;;;;;;;;3.20;79.40;;;;;;5097687;28;19931;-75
2023/03/03 05:15:34;;;;;;;;;;;3.20;79.50;;;;;;5099419;27;20015;-74
2023/03/03 05:18:02;;;;;;;;;;;3.20;79.50;;;;;;5097319;27;19935;-75
2023/03/03 05:20:28;;;;;;;;;;;3.10;79.40;;;;;;5100257;28;19934;-75
2023/03/03 05:22:58;;;;;;;;;;;3.20;79.50;;;;;;5096774;27;19927;-76
2023/03/03 05:25:25;;;;;;;;;;;3.10;79.60;;;;;;5094669;28;20042;-75
2023/03/03 05:27:51;;;;;;;;;;;3.10;79.50;;;;;;5095988;28;20029;-76
2023/03/03 05:30:18;;;;;;;;;;;3.10;79.50;;;;;;5092876;28;19977;-76
2023/03/03 05:32:45;;;;;;;;;;;3.10;79.50;;;;;;5092470;28;21442;-75
2023/03/03 05:35:13;;;;;;;;;;;3.10;79.50;;;;;;5097388;28;19943;-76
2023/03/03 05:37:43;;;;;;;;;;;3.10;79.60;;;;;;5098080;27;20597;-76
2023/03/03 05:40:10;;;;;;;;;;;3.10;79.60;;;;;;5094963;27;19943;-76
2023/03/03 05:42:37;;;;;;;;;;;3.00;79.60;;;;;;5095601;28;19938;-77
2023/03/03 05:45:04;;;;;;;;;;;3.00;79.50;;;;;;5096037;28;19943;-74
2023/03/03 05:47:30;;;;;;;;;;;3.00;79.50;;;;;;5094434;27;19928;-76
2023/03/03 05:49:57;;;;;;;;;;;3.00;79.50;;;;;;5095839;27;20005;-76
2023/03/03 05:52:25;;;;;;;;;;;3.00;79.60;;;;;;5098636;27;19932;-75
2023/03/03 05:54:51;;;;;;;;;;;3.00;79.60;;;;;;5099292;28;20341;-75
2023/03/03 05:57:18;;;;;;;;;;;3.00;79.60;;;;;;5095026;28;19928;-74
2023/03/03 05:59:44;;;;;;;;;;;3.00;79.60;;;;;;5096959;28;19932;-77
2023/03/03 06:02:11;;;;;;;;;;;2.90;79.60;;;;;;5093467;27;20662;-76
2023/03/03 06:04:38;;;;;;;;;;;2.90;79.60;;;;;;5092626;28;20365;-75
2023/03/03 06:07:05;;;;;;;;;;;2.90;79.60;;;;;;5095143;28;20538;-75
2023/03/03 06:09:33;;;;;;;;;;;2.90;79.60;;;;;;5093952;27;19927;-75
2023/03/03 06:12:00;;;;;;;;;;;2.90;79.70;;;;;;5096161;28;19928;-75
2023/03/03 06:14:26;;;;;;;;;;;2.80;79.60;;;;;;5096830;28;20678;-74
2023/03/03 06:16:53;;;;;;;;;;;2.80;79.70;;;;;;5092118;28;19978;-75
2023/03/03 06:19:19;;;;;;;;;;;2.80;79.70;;;;;;5093856;27;19928;-75
2023/03/03 06:21:46;;;;;;;;;;;2.80;79.70;;;;;;5094798;28;20439;-74
2023/03/03 06:24:12;;;;;;;;;;;2.80;79.80;;;;;;5092465;28;19970;-77
2023/03/03 06:26:41;;;;;;;;;;;2.80;79.80;;;;;;5097008;28;19935;-75
2023/03/03 06:29:07;;;;;;;;;;;2.80;79.80;;;;;;5091402;27;19932;-75
2023/03/03 06:31:34;;;;;;;;;;;2.80;79.90;;;;;;5094284;27;19932;-72
2023/03/03 06:34:01;;;;;;;;;;;2.80;79.90;;;;;;5088573;28;19928;-75
2023/03/03 06:36:27;;;;;;;;;;;2.80;79.90;;;;;;5091409;28;19980;-75
2023/03/03 06:38:54;;;;;;;;;;;2.80;80.00;;;;;;5090411;28;19938;-76
2023/03/03 06:41:20;;;;;;;;;;;2.80;80.00;;;;;;5089214;28;19931;-75
2023/03/03 06:43:48;;;;;;;;;;;2.80;80.10;;;;;;5092508;28;19984;-74
2023/03/03 06:46:16;;;;;;;;;;;2.70;80.10;;;;;;5089015;27;19976;-75
2023/03/03 06:48:42;;;;;;;;;;;2.80;80.20;;;;;;5089977;28;19928;-75
2023/03/03 06:51:18;;;;;;;;;;;2.70;80.20;;;;;;5093045;28;20352;-75
2023/03/03 06:53:44;;;;;;;;;;;2.70;80.20;;;;;;5093755;28;19984;-75
2023/03/03 06:56:11;;;;;;;;;;;2.70;80.30;;;;;;5094669;27;19932;-75
2023/03/03 06:58:37;;;;;;;;;;;2.70;80.40;;;;;;5094300;28;19935;-77
2023/03/03 07:01:12;;;;;;;;;;;2.70;80.50;;;;;;5093532;27;19981;-78
2023/03/03 07:03:39;;;;;;;;;;;2.70;80.50;;;;;;5093090;28;20334;-77
2023/03/03 07:06:08;;;;;;;;;;;2.70;80.60;;;;;;5093233;27;20692;-77
2023/03/03 07:08:35;;;;;;;;;;;2.70;80.70;;;;;;5093613;28;20419;-77
2023/03/03 07:11:08;;;;;;;;;;;2.70;80.70;;;;;;5094864;28;19948;-78
2023/03/03 07:13:35;;;;;;;;;;;2.70;80.80;;;;;;5088236;28;20602;-77
2023/03/03 07:16:06;;;;;;;;;;;2.70;80.80;;;;;;5082362;28;20309;-77
2023/03/03 07:18:37;;;;;;;;;;;2.70;80.90;;;;;;5066128;28;19932;-77
2023/03/03 07:21:12;;;;;;;;;;;2.70;80.90;;;;;;5068490;28;19932;-78
2023/03/03 07:23:41;;;;;;;;;;;2.70;80.90;;;;;;5072048;28;19928;-77
2023/03/03 07:26:08;;;;;;;;;;;2.70;81.00;;;;;;5068817;28;19928;-77
2023/03/03 07:28:35;;;;;;;;;;;2.70;81.00;;;;;;5068232;28;19932;-77
2023/03/03 07:31:01;;;;;;;;;;;2.70;81.00;;;;;;5072668;28;19940;-78
2023/03/03 07:33:29;;;;;;;;;;;2.70;81.10;;;;;;5092181;28;20310;-77
2023/03/03 07:35:58;;;;;;;;;;;2.70;81.10;;;;;;5095133;28;19928;-78
2023/03/03 07:38:29;;;;;;;;;;;2.70;81.10;;;;;;5091939;28;19932;-77
2023/03/03 07:40:57;;;;;;;;;;;2.70;81.10;;;;;;5085919;28;19928;-77
2023/03/03 07:43:31;;;;;;;;;;;2.70;81.10;;;;;;5090269;28;19932;-77
2023/03/03 07:46:02;;;;;;;;;;;2.70;81.20;;;;;;5089516;28;19928;-76
2023/03/03 07:48:31;;;;;;;;;;;2.70;81.20;;;;;;5094315;28;19928;-77
2023/03/03 07:51:01;;;;;;;;;;;2.70;81.20;;;;;;5092039;28;19927;-77
2023/03/03 07:53:33;;;;;;;;;;;2.80;81.30;;;;;;5093397;27;20744;-77
2023/03/03 07:56:00;;;;;;;;;;;2.70;81.20;;;;;;5096840;28;19928;-77
2023/03/03 07:58:33;;;;;;;;;;;2.80;81.30;;;;;;5096964;28;19938;-78
2023/03/03 08:01:15;;;;;;;;;;;2.80;81.30;;;;;;5091388;28;19934;-78
2023/03/03 08:03:44;;;;;;;;;;;2.80;81.30;;;;;;5088342;28;19935;-76
2023/03/03 08:06:28;;;;;;;;;;;2.80;81.30;;;;;;5094817;28;20068;-76
2023/03/03 08:08:55;;;;;;;;;;;2.80;81.30;;;;;;5089800;28;20328;-77
2023/03/03 08:11:21;;;;;;;;;;;2.80;81.30;;;;;;5094684;28;20015;-78
2023/03/03 08:13:48;;;;;;;;;;;2.80;81.20;;;;;;5089731;28;19936;-76
2023/03/03 08:16:24;;;;;;;;;;;2.90;81.30;;;;;;5090628;27;19932;-76
2023/03/03 08:18:52;;;;;;;;;;;2.90;81.20;;;;;;5094921;28;19928;-77
2023/03/03 08:21:20;;;;;;;;;;;2.90;81.20;;;;;;5086711;28;19931;-77
2023/03/03 08:23:52;;;;;;;;;;;2.90;81.20;;;;;;5095222;28;21880;-77
2023/03/03 08:26:19;;;;;;;;;;;2.90;81.20;;;;;;5090915;27;19936;-77
2023/03/03 08:28:46;;;;;;;;;;;2.90;81.30;;;;;;5090878;28;20692;-76
2023/03/03 08:31:12;;;;;;;;;;;2.90;81.20;;;;;;5091064;28;19931;-77
2023/03/03 08:33:39;;;;;;;;;;;2.90;81.20;;;;;;5096622;28;20420;-76
2023/03/03 08:36:06;;;;;;;;;;;2.90;81.10;;;;;;5087006;27;19934;-77
2023/03/03 08:38:33;;;;;;;;;;;3.00;81.20;;;;;;5082050;28;19949;-78
2023/03/03 08:41:01;;;;;;;;;;;3.00;81.20;;;;;;5096138;28;20456;-76
2023/03/03 08:43:27;;;;;;;;;;;3.00;81.20;;;;;;5097560;28;20561;-75
2023/03/03 08:45:57;;;;;;;;;;;3.00;81.10;;;;;;5097669;28;20546;-74
2023/03/03 08:48:23;;;;;;;;;;;3.10;81.10;;;;;;5100726;28;20466;-75
2023/03/03 08:50:50;;;;;;;;;;;3.10;81.00;;;;;;5097587;28;19954;-75
2023/03/03 08:53:18;;;;;;;;;;;3.10;80.90;;;;;;5096928;28;19931;-75
2023/03/03 08:55:44;;;;;;;;;;;3.10;80.80;;;;;;5097427;28;20426;-74
2023/03/03 08:58:12;;;;;;;;;;;3.10;80.70;;;;;;5096905;27;19957;-75
2023/03/03 09:00:39;;;;;;;;;;;3.20;80.60;;;;;;5092458;28;20443;-76
2023/03/03 09:03:06;;;;;;;;;;;3.20;80.60;;;;;;5095870;28;19928;-75
2023/03/03 09:05:33;;;;;;;;;;;3.30;80.80;;;;;;5094220;28;19927;-74
2023/03/03 09:08:00;;;;;;;;;;;3.30;81.00;;;;;;5098174;27;20009;-75
2023/03/03 09:10:28;;;;;;;;;;;3.30;81.00;;;;;;5095669;28;19931;-74
2023/03/03 09:12:57;;;;;;;;;;;3.40;81.10;;;;;;5093934;28;20634;-75
2023/03/03 09:15:25;;;;;;;;;;;3.40;81.10;;;;;;5100727;28;19928;-75
2023/03/03 09:17:52;;;;;;;;;;;3.40;81.10;;;;;;5096627;28;20508;-75
2023/03/03 09:20:22;;;;;;;;;;;3.40;81.20;;;;;;5097062;28;20397;-75
2023/03/03 09:22:49;;;;;;;;;;;3.40;81.10;;;;;;5100695;28;20014;-74
2023/03/03 09:25:21;;;;;;;;;;;3.50;81.00;;;;;;5100421;28;20479;-75
2023/03/03 09:27:48;;;;;;;;;;;3.50;80.80;;;;;;5100226;28;20696;-75
2023/03/03 09:30:27;;;;;;;;;;;3.50;80.60;;;;;;5101017;28;19928;-75
2023/03/03 09:32:56;;;;;;;;;;;3.50;80.40;;;;;;5100942;27;20309;-76
2023/03/03 09:35:35;;;;;;;;;;;3.60;80.30;;;;;;5096666;27;19927;-75
2023/03/03 09:38:02;;;;;;;;;;;3.60;80.20;;;;;;5096378;28;20042;-75
2023/03/03 09:40:39;;;;;;;;;;;3.70;80.00;;;;;;5100671;27;19927;-76
2023/03/03 09:43:06;;;;;;;;;;;3.70;79.80;;;;;;5094025;28;19981;-76
2023/03/03 09:45:40;;;;;;;;;;;3.80;79.90;;;;;;5097394;28;19932;-75
2023/03/03 09:48:30;;;;;;;;;;;3.90;79.60;;;;;;5099699;28;19938;-74
2023/03/03 09:51:07;;;;;;;;;;;3.90;79.30;;;;;;5080752;27;19977;-75
2023/03/03 09:53:42;;;;;;;;;;;4.00;79.00;;;;;;5097163;28;20061;-74
2023/03/03 09:56:12;;;;;;;;;;;4.10;78.80;;;;;;5098646;28;19934;-76
2023/03/03 09:58:56;;;;;;;;;;;4.20;78.70;;;;;;5096562;28;20034;-75
2023/03/03 10:01:34;;;;;;;;;;;4.30;78.60;;;;;;5087228;27;19932;-76
2023/03/03 10:04:27;;;;;;;;;;;4.30;78.30;;;;;;5099094;28;20003;-76
2023/03/03 10:07:01;;;;;;;;;;;4.40;78.20;;;;;;5084189;28;19935;-76
2023/03/03 10:09:44;;;;;;;;;;;4.40;78.00;;;;;;5094404;28;19928;-75
2023/03/03 10:12:15;;;;;;;;;;;4.50;77.80;;;;;;5095300;28;19928;-76
2023/03/03 10:14:50;;;;;;;;;;;4.60;77.80;;;;;;5094529;28;20121;-76
2023/03/03 10:17:29;;;;;;;;;;;4.60;77.60;;;;;;5091509;28;20426;-76
2023/03/03 10:20:06;;;;;;;;;;;4.70;77.60;;;;;;5089376;28;19962;-76
2023/03/03 10:22:39;;;;;;;;;;;4.80;77.50;;;;;;5097231;28;19928;-76
2023/03/03 10:25:17;;;;;;;;;;;4.90;77.30;;;;;;5097529;28;19932;-76
2023/03/03 10:27:51;;;;;;;;;;;4.90;77.20;;;;;;5092266;28;19928;-76
2023/03/03 10:30:21;;;;;;;;;;;5.00;77.10;;;;;;5096378;28;20772;-76
2023/03/03 10:32:52;;;;;;;;;;;5.10;77.00;;;;;;5094660;28;20014;-76
2023/03/03 10:35:24;;;;;;;;;;;5.10;76.90;;;;;;5096341;28;19935;-74
2023/03/03 10:37:57;;;;;;;;;;;5.10;77.50;;;;;;5095880;28;19935;-75
2023/03/03 10:40:27;;;;;;;;;;;5.20;76.70;;;;;;5095176;28;19932;-75
2023/03/03 10:43:16;;;;;;;;;;;5.30;76.30;;;;;;5097380;28;20027;-76
2023/03/03 10:45:55;;;;;;;;;;;5.40;76.20;;;;;;5082224;28;19989;-75
2023/03/03 10:48:29;;;;;;;;;;;5.40;75.80;;;;;;5072561;28;19988;-75
2023/03/03 10:50:58;;;;;;;;;;;5.50;75.80;;;;;;5067830;28;19928;-76
2023/03/03 10:53:31;;;;;;;;;;;5.50;75.50;;;;;;5074504;28;20337;-75
2023/03/03 10:56:08;;;;;;;;;;;5.60;75.30;;;;;;5077790;28;19936;-75
2023/03/03 10:58:49;;;;;;;;;;;5.60;75.10;;;;;;5073830;28;19940;-75
2023/03/03 11:01:22;;;;;;;;;;;5.70;75.10;;;;;;5084390;28;20548;-75
2023/03/03 11:04:03;;;;;;;;;;;5.70;74.80;;;;;;5093376;28;19934;-77
2023/03/03 11:06:34;;;;;;;;;;;5.80;74.80;;;;;;5093784;28;19932;-77
2023/03/03 11:09:06;;;;;;;;;;;5.90;74.70;;;;;;5091071;28;19959;-77
2023/03/03 11:11:36;;;;;;;;;;;5.90;74.20;;;;;;5091818;28;19934;-77
2023/03/03 11:14:08;;;;;;;;;;;6.00;74.00;;;;;;5088338;28;19924;-77
2023/03/03 11:16:39;;;;;;;;;;;6.00;73.60;;;;;;5087864;28;19939;-77
2023/03/03 11:19:12;;;;;;;;;;;6.10;73.80;;;;;;5086664;28;19928;-77
2023/03/03 11:21:41;;;;;;;;;;;6.20;73.60;;;;;;5092339;28;19931;-77
2023/03/03 11:24:18;;;;;;;;;;;6.20;73.30;;;;;;5088966;28;20377;-77
2023/03/03 11:26:58;;;;;;;;;;;6.30;73.40;;;;;;5092333;28;19938;-77
2023/03/03 11:29:29;;;;;;;;;;;6.30;73.20;;;;;;5091924;28;19954;-77
2023/03/03 11:31:57;;;;;;;;;;;6.40;73.10;;;;;;5089984;27;19932;-77
2023/03/03 11:34:39;;;;;;;;;;;6.50;72.80;;;;;;5091747;28;19932;-76
2023/03/03 11:37:08;;;;;;;;;;;6.50;72.70;;;;;;5096249;27;19927;-77
2023/03/03 11:39:36;;;;;;;;;;;6.60;72.20;;;;;;5089952;28;20005;-77
2023/03/03 11:42:08;;;;;;;;;;;6.60;72.20;;;;;;5093283;28;23559;-75
2023/03/03 11:44:36;;;;;;;;;;;6.70;72.00;;;;;;5096025;28;19931;-77
2023/03/03 11:47:05;;;;;;;;;;;6.70;72.00;;;;;;5093103;28;19928;-77
2023/03/03 11:49:34;;;;;;;;;;;6.80;71.90;;;;;;5093256;28;19928;-77
2023/03/03 11:52:04;;;;;;;;;;;6.80;71.00;;;;;;5091820;28;19932;-76
2023/03/03 11:54:34;;;;;;;;;;;6.90;71.30;;;;;;5090841;28;19935;-77
2023/03/03 11:57:10;;;;;;;;;;;6.90;71.00;;;;;;5083355;27;19935;-77
2023/03/03 11:59:44;;;;;;;;;;;7.00;71.00;;;;;;5097884;28;20424;-76
2023/03/03 12:02:19;;;;;;;;;;;7.10;70.90;;;;;;5084353;27;20492;-77
2023/03/03 12:04:48;;;;;;;;;;;7.20;71.00;;;;;;5096966;28;19976;-80
2023/03/03 12:07:23;;;;;;;;;;;7.20;70.80;;;;;;5089001;28;19931;-78
2023/03/03 12:09:55;;;;;;;;;;;7.30;70.70;;;;;;5087383;28;20405;-79
2023/03/03 12:12:24;;;;;;;;;;;7.30;70.50;;;;;;5090267;27;19923;-76
2023/03/03 12:14:57;;;;;;;;;;;7.40;70.40;;;;;;5087606;28;19928;-78
2023/03/03 12:17:33;;;;;;;;;;;7.40;69.90;;;;;;5088381;27;20712;-78
2023/03/03 12:20:02;;;;;;;;;;;7.50;70.10;;;;;;5087712;27;19950;-76
2023/03/03 12:22:32;;;;;;;;;;;7.50;69.80;;;;;;5084648;28;20487;-77
2023/03/03 12:25:04;;;;;;;;;;;7.60;69.80;;;;;;5085524;28;19932;-77
2023/03/03 12:27:35;;;;;;;;;;;7.60;69.30;;;;;;5093550;28;19928;-78
2023/03/03 12:30:06;;;;;;;;;;;7.70;69.40;;;;;;5087291;28;19928;-80
2023/03/03 12:32:40;;;;;;;;;;;7.80;69.10;;;;;;5090063;28;19934;-78
2023/03/03 12:35:11;;;;;;;;;;;7.80;69.00;;;;;;5087168;28;19932;-78
2023/03/03 12:37:46;;;;;;;;;;;7.90;68.90;;;;;;5087869;28;19946;-77
2023/03/03 12:40:16;;;;;;;;;;;7.90;69.00;;;;;;5085149;28;19932;-77
2023/03/03 12:42:52;;;;;;;;;;;7.90;68.30;;;;;;5089707;28;19939;-77
2023/03/03 12:45:27;;;;;;;;;;;7.90;68.60;;;;;;5086446;27;19935;-77
2023/03/03 12:47:58;;;;;;;;;;;8.00;68.70;;;;;;5086301;28;19932;-76
2023/03/03 12:50:30;;;;;;;;;;;8.10;68.80;;;;;;5085658;28;19932;-77
2023/03/03 12:53:02;;;;;;;;;;;8.10;68.80;;;;;;5088316;28;19932;-78
2023/03/03 12:55:35;;;;;;;;;;;8.20;68.50;;;;;;5089342;27;19928;-77
2023/03/03 12:58:10;;;;;;;;;;;8.20;68.40;;;;;;5082230;27;19928;-75
2023/03/03 13:00:42;;;;;;;;;;;8.30;68.00;;;;;;5085906;28;19931;-75
2023/03/03 13:03:13;;;;;;;;;;;8.30;68.00;;;;;;5080146;27;19934;-77
2023/03/03 13:05:49;;;;;;;;;;;8.30;67.50;;;;;;5077734;28;20577;-80
2023/03/03 13:08:20;;;;;;;;;;;8.40;67.70;;;;;;5076816;28;21805;-78
2023/03/03 13:10:50;;;;;;;;;;;8.40;67.70;;;;;;5086328;28;19932;-79
2023/03/03 13:13:21;;;;;;;;;;;8.50;67.70;;;;;;5091690;28;19942;-77
2023/03/03 13:15:53;;;;;;;;;;;8.50;67.70;;;;;;5095486;27;19928;-76
2023/03/03 13:18:28;;;;;;;;;;;8.50;66.80;;;;;;5097056;27;20357;-78
2023/03/03 13:20:58;;;;;;;;;;;8.60;67.00;;;;;;5096691;27;20343;-77
2023/03/03 13:23:33;;;;;;;;;;;8.60;66.90;;;;;;5089605;28;19935;-76
2023/03/03 13:26:03;;;;;;;;;;;8.60;66.70;;;;;;5089983;27;19931;-77
2023/03/03 13:28:34;;;;;;;;;;;8.70;67.10;;;;;;5089104;28;20406;-75
2023/03/03 13:31:02;;;;;;;;;;;8.70;67.30;;;;;;5088145;28;19928;-76
2023/03/03 13:33:30;;;;;;;;;;;8.70;66.80;;;;;;5090422;28;19932;-77
2023/03/03 13:35:58;;;;;;;;;;;8.80;66.70;;;;;;5093229;28;19927;-78
2023/03/03 13:38:27;;;;;;;;;;;8.80;67.20;;;;;;5089670;28;19985;-75
2023/03/03 13:40:57;;;;;;;;;;;8.90;67.20;;;;;;5091474;27;20491;-77
2023/03/03 13:43:26;;;;;;;;;;;8.90;67.00;;;;;;5092711;28;21481;-76
2023/03/03 13:46:04;;;;;;;;;;;8.90;66.60;;;;;;5093634;27;19928;-74
2023/03/03 13:48:37;;;;;;;;;;;9.00;66.80;;;;;;5088607;27;19968;-76
2023/03/03 13:51:07;;;;;;;;;;;9.00;66.30;;;;;;5086779;27;19928;-76
2023/03/03 13:53:40;;;;;;;;;;;9.10;66.50;;;;;;5093132;28;19927;-77
2023/03/03 13:56:11;;;;;;;;;;;9.10;66.80;;;;;;5089630;27;19952;-77
2023/03/03 13:58:41;;;;;;;;;;;9.10;65.80;;;;;;5088791;28;19998;-75
2023/03/03 14:01:14;;;;;;;;;;;9.20;65.80;;;;;;5087728;28;19928;-77
2023/03/03 14:03:48;;;;;;;;;;;9.20;65.80;;;;;;5087742;28;19934;-76
2023/03/03 14:06:16;;;;;;;;;;;9.20;66.20;;;;;;5089243;28;20006;-76
2023/03/03 14:08:50;;;;;;;;;;;9.20;66.20;;;;;;5087712;28;20054;-77
2023/03/03 14:11:19;;;;;;;;;;;9.20;65.90;;;;;;5086337;28;19932;-78
2023/03/03 14:13:54;;;;;;;;;;;9.30;66.00;;;;;;5090482;28;20022;-77
2023/03/03 14:16:27;;;;;;;;;;;9.30;66.50;;;;;;5086337;28;19931;-77
2023/03/03 14:18:55;;;;;;;;;;;9.30;65.90;;;;;;5089568;28;19936;-76
2023/03/03 14:21:27;;;;;;;;;;;9.40;66.30;;;;;;5089794;28;19970;-75
2023/03/03 14:23:56;;;;;;;;;;;9.30;65.70;;;;;;5094045;27;19928;-76
2023/03/03 14:26:23;;;;;;;;;;;9.40;66.00;;;;;;5092051;27;19928;-76
2023/03/03 14:28:51;;;;;;;;;;;9.40;66.40;;;;;;5092507;28;19932;-77
2023/03/03 14:31:22;;;;;;;;;;;9.50;66.10;;;;;;5090881;28;19934;-75
2023/03/03 14:34:06;;;;;;;;;;;9.50;66.10;;;;;;5089063;27;20405;-76
2023/03/03 14:36:34;;;;;;;;;;;9.50;65.90;;;;;;5086608;28;20052;-76
2023/03/03 14:39:01;;;;;;;;;;;9.60;65.70;;;;;;5089845;27;20291;-77
2023/03/03 14:41:45;;;;;;;;;;;9.60;65.60;;;;;;5087833;28;19931;-77
2023/03/03 14:44:23;;;;;;;;;;;9.60;65.90;;;;;;5088851;28;19939;-77